Home   Weather   Australia   Tweed Heads   Past weeks
Flag for Australia

Past Weather in Tweed Heads, New South Wales, Australia — Yesterday and Last 2 Weeks

Currently: 54 °F. Clear. (Weather station: Coolangatta Aws Airport, Australia). See more current weather

Past Weather in Tweed Heads — Graph

°F

Tweed Heads Temperature Yesterday

Maximum temperature yesterday: 73 °F (at 1:30 pm)
Minimum temperature yesterday: 37 °F (at 4:00 am)
Average temperature yesterday: 57 °F

High & Low Weather Summary for the Past Weeks

 TemperatureHumidityPressure
High73 °F (Jul 20, 1:30 pm)100% (Jul 8, 1:00 am)30.45 "Hg (Jul 8, 1:00 am)
Low37 °F (Jul 20, 4:00 am)20% (Jul 21, 1:30 pm)29.71 "Hg (Jul 16, 2:00 pm)
Average57 °F76%29.99 "Hg
* Reported Jul 6 6:00 pm — Jul 21 6:00 pm, Tweed Heads. Weather by CustomWeather, © 2024

Note: Actual official high and low records may vary slightly from our data, if they occured in-between our weather recording intervals... More about our weather records

Tweed Heads Weather History for the Previous 24 Hours

Scroll right to see more
 ConditionsComfort  
Time TempWeatherWind HumidityBarometerVisibility
6:00 pm
Sun, Jul 21
57 °FClear.8 mph63%30.09 "HgN/A
5:00 pm59 °FSunny.5 mph59%30.07 "HgN/A
4:30 pm68 °FSunny.3 mph33%30.04 "HgN/A
4:00 pm70 °FSunny.6 mph27%30.04 "HgN/A
3:30 pm70 °FSunny.10 mph25%30.04 "HgN/A
3:00 pm70 °FSunny.9 mph23%30.01 "HgN/A
2:30 pm72 °FSunny.7 mph20%30.01 "HgN/A
2:00 pm72 °FSunny.7 mph22%30.01 "HgN/A
1:30 pm70 °FSunny.12 mph20%30.01 "HgN/A
1:00 pm70 °FSunny.10 mph25%30.01 "HgN/A
12:30 pm70 °FSunny.6 mph21%30.01 "HgN/A
12:00 pm68 °FSunny.6 mph28%30.04 "HgN/A
11:30 am66 °FSunny.6 mph35%30.04 "HgN/A
11:00 am64 °FSunny.9 mph34%30.07 "HgN/A
10:30 am64 °FSunny.9 mph34%30.07 "HgN/A
10:00 am63 °FSunny.5 mph34%30.09 "HgN/A
9:30 am61 °FSunny.5 mph45%30.09 "HgN/A
9:00 am59 °FSunny.3 mph51%30.09 "HgN/A
8:30 am55 °FSunny.No wind63%30.09 "HgN/A
8:00 am52 °FSunny.2 mph67%30.07 "HgN/A
7:30 am46 °FSunny.1 mph82%30.07 "HgN/A
7:00 am41 °FSunny.No wind87%30.07 "HgN/A
5:30 am41 °FClear.2 mph87%30.01 "HgN/A
5:00 am43 °FClear.6 mph81%30.01 "HgN/A
4:30 am43 °FClear.5 mph87%29.98 "HgN/A
4:00 am45 °FClear.9 mph81%29.98 "HgN/A
3:30 am43 °FClear.7 mph93%29.98 "HgN/A
3:00 am43 °FClear.3 mph81%29.98 "HgN/A
2:30 am43 °FClear.5 mph87%29.98 "HgN/A
2:00 am45 °FClear.6 mph81%29.98 "HgN/A
1:30 am48 °FClear.7 mph76%29.98 "HgN/A
1:00 am45 °FClear.No wind87%29.98 "HgN/A
12:30 am45 °FClear.2 mph81%29.95 "HgN/A
11:30 pm
Sat, Jul 20
48 °FClear.5 mph76%29.95 "HgN/A
11:00 pm50 °FClear.6 mph76%29.95 "HgN/A
10:30 pm52 °FClear.No wind62%29.95 "HgN/A
10:00 pm54 °FClear.No wind58%29.95 "HgN/A
9:30 pm59 °FClear.5 mph45%29.95 "HgN/A
9:00 pm63 °FClear.9 mph37%29.95 "HgN/A
8:30 pm63 °FClear.9 mph37%29.92 "HgN/A
8:00 pm64 °FClear.14 mph34%29.92 "HgN/A
Weather by CustomWeather, © 2024

See weather overview